createdAt,value
2018-11-06T00:00:49.771Z,70.07
2018-11-06T00:03:24.405Z,70.69
2018-11-06T00:05:53.746Z,70.34
2018-11-06T00:08:23.237Z,71.10
2018-11-06T00:10:52.141Z,71.48
2018-11-06T00:13:20.949Z,71.33
2018-11-06T00:15:49.754Z,70.49
2018-11-06T00:18:18.561Z,71.02
2018-11-06T00:20:47.469Z,71.02
2018-11-06T00:23:16.809Z,71.35
2018-11-06T00:25:45.688Z,70.67
2018-11-06T00:28:14.905Z,70.91
2018-11-06T00:30:43.892Z,71.20
2018-11-06T00:33:12.884Z,71.41
2018-11-06T00:35:41.928Z,70.88
2018-11-06T00:38:10.829Z,71.66
2018-11-06T00:40:39.870Z,71.30
2018-11-06T00:43:08.690Z,71.71
2018-11-06T00:45:38.059Z,71.46
2018-11-06T00:48:07.250Z,71.23
2018-11-06T00:50:36.546Z,71.19
2018-11-06T00:53:05.711Z,71.86
2018-11-06T00:55:34.626Z,71.81
2018-11-06T00:58:03.400Z,72.00
2018-11-06T01:00:32.480Z,71.78
2018-11-06T01:03:01.422Z,71.88
2018-11-06T01:05:30.526Z,71.86
2018-11-06T01:07:59.320Z,72.13
2018-11-06T01:10:28.522Z,71.79
2018-11-06T01:12:57.627Z,71.90
2018-11-06T01:15:26.547Z,72.64
2018-11-06T01:17:55.611Z,72.29
2018-11-06T01:20:24.449Z,72.06
2018-11-06T01:22:53.345Z,72.40
2018-11-06T01:25:22.142Z,72.30
2018-11-06T01:27:51.250Z,72.50
2018-11-06T01:30:21.042Z,73.01
2018-11-06T01:32:49.865Z,72.61
2018-11-06T01:35:18.729Z,72.70
2018-11-06T01:37:47.849Z,73.10
2018-11-06T01:40:18.196Z,72.98
2018-11-06T01:42:47.567Z,73.24
2018-11-06T01:45:17.229Z,72.89
2018-11-06T01:47:46.068Z,73.38
2018-11-06T01:50:16.475Z,73.53
2018-11-06T01:52:46.644Z,74.07
2018-11-06T01:55:15.478Z,74.00
2018-11-06T01:57:44.238Z,73.47
2018-11-06T02:00:15.804Z,74.20
2018-11-06T02:02:47.549Z,74.00
2018-11-06T02:05:17.631Z,74.29
2018-11-06T02:07:47.779Z,74.25
2018-11-06T02:10:17.033Z,74.34
2018-11-06T02:12:47.025Z,73.92
2018-11-06T02:15:15.991Z,74.77
2018-11-06T02:17:45.453Z,74.30
2018-11-06T02:20:15.406Z,74.42
2018-11-06T02:22:45.011Z,74.67
2018-11-06T02:25:14.142Z,74.86
2018-11-06T02:27:42.937Z,74.63
2018-11-06T02:30:13.981Z,75.25
2018-11-06T02:32:43.830Z,75.41
2018-11-06T02:35:12.762Z,75.06
2018-11-06T02:37:42.003Z,75.32
2018-11-06T02:40:14.999Z,75.48
2018-11-06T02:42:44.395Z,75.50
2018-11-06T02:45:14.177Z,75.55
2018-11-06T02:47:43.572Z,75.68
2018-11-06T02:50:13.569Z,76.34
2018-11-06T02:52:43.165Z,76.36
2018-11-06T02:55:12.361Z,76.01
2018-11-06T02:57:41.915Z,76.57
2018-11-06T03:00:13.764Z,76.23
2018-11-06T03:02:43.022Z,76.87
2018-11-06T03:05:12.127Z,76.68
2018-11-06T03:07:41.591Z,76.84
2018-11-06T03:10:11.781Z,76.81
2018-11-06T03:12:42.119Z,76.77
2018-11-06T03:15:12.229Z,77.34
2018-11-06T03:17:41.446Z,77.55
2018-11-06T03:20:11.222Z,77.60
2018-11-06T03:22:40.881Z,77.34
2018-11-06T03:25:10.053Z,77.22
2018-11-06T03:27:38.936Z,77.99
2018-11-06T03:30:10.195Z,77.96
2018-11-06T03:32:39.101Z,77.90
2018-11-06T03:35:08.896Z,78.11
2018-11-06T03:37:38.279Z,78.13
2018-11-06T03:40:07.823Z,78.37
2018-11-06T03:42:36.952Z,78.55
2018-11-06T03:45:06.481Z,78.06
2018-11-06T03:47:35.464Z,78.27
2018-11-06T03:50:04.303Z,78.46
2018-11-06T03:52:33.080Z,78.36
2018-11-06T03:55:01.863Z,79.03
2018-11-06T03:57:30.678Z,78.46
2018-11-06T03:59:59.895Z,78.56
2018-11-06T04:02:28.770Z,79.42
2018-11-06T04:04:57.718Z,79.37
2018-11-06T04:07:26.666Z,79.48
2018-11-06T04:09:55.551Z,78.96
2018-11-06T04:12:24.354Z,78.91
2018-11-06T04:14:53.149Z,79.77
2018-11-06T04:17:22.019Z,79.21
2018-11-06T04:19:51.114Z,79.85
2018-11-06T04:22:19.993Z,79.26
2018-11-06T04:24:48.878Z,79.50
2018-11-06T04:27:17.775Z,79.50
2018-11-06T04:29:46.627Z,79.55
2018-11-06T04:32:15.590Z,80.18
2018-11-06T04:34:44.467Z,80.23
2018-11-06T04:37:13.974Z,79.87
2018-11-06T04:39:42.838Z,80.37
2018-11-06T04:42:11.664Z,79.91
2018-11-06T04:44:40.558Z,80.74
2018-11-06T04:47:09.394Z,80.00
2018-11-06T04:49:38.915Z,80.51
2018-11-06T04:52:07.733Z,80.21
2018-11-06T04:54:36.582Z,80.50
2018-11-06T04:57:05.809Z,80.50
2018-11-06T04:59:34.642Z,80.44
2018-11-06T05:02:03.745Z,81.03
2018-11-06T05:04:32.606Z,80.61
2018-11-06T05:07:01.656Z,81.14
2018-11-06T05:09:37.262Z,81.39
2018-11-06T05:12:06.420Z,81.41
2018-11-06T05:14:35.535Z,81.06
2018-11-06T05:17:04.693Z,81.50
2018-11-06T05:19:33.807Z,81.57
2018-11-06T05:22:02.760Z,81.33
2018-11-06T05:24:31.605Z,81.54
2018-11-06T05:27:00.507Z,81.48
2018-11-06T05:29:29.288Z,81.86
2018-11-06T05:31:58.201Z,81.50
2018-11-06T05:34:27.438Z,81.87
2018-11-06T05:36:56.293Z,81.74
2018-11-06T05:39:25.166Z,82.38
2018-11-06T05:41:54.880Z,82.47
2018-11-06T05:44:23.974Z,81.95
2018-11-06T05:46:52.814Z,82.21
2018-11-06T05:49:21.749Z,82.34
2018-11-06T05:51:50.631Z,82.56
2018-11-06T05:54:19.551Z,82.02
2018-11-06T05:56:48.365Z,82.45
2018-11-06T05:59:17.283Z,82.38
2018-11-06T06:01:46.173Z,83.19
2018-11-06T06:04:15.094Z,83.02
2018-11-06T06:06:43.933Z,83.18
2018-11-06T06:09:12.785Z,82.76
2018-11-06T06:11:41.682Z,83.00
2018-11-06T06:14:11.142Z,83.07
2018-11-06T06:16:40.026Z,83.15
2018-11-06T06:19:08.887Z,83.27
2018-11-06T06:21:39.163Z,83.21
2018-11-06T06:24:08.029Z,83.26
2018-11-06T06:26:36.950Z,83.70
2018-11-06T06:29:06.271Z,83.24
2018-11-06T06:31:35.151Z,83.72
2018-11-06T06:34:04.319Z,83.96
2018-11-06T06:36:33.186Z,83.20
2018-11-06T06:39:02.160Z,84.04
2018-11-06T06:41:31.306Z,83.83
2018-11-06T06:44:00.235Z,83.76
2018-11-06T06:46:29.155Z,83.79
2018-11-06T06:48:58.239Z,84.27
2018-11-06T06:51:27.142Z,83.71
2018-11-06T06:53:56.003Z,83.72
2018-11-06T06:56:24.874Z,84.28
2018-11-06T06:58:55.240Z,84.37
2018-11-06T07:01:25.854Z,84.45
2018-11-06T07:03:56.416Z,84.10
2018-11-06T07:06:27.291Z,84.19
2018-11-06T07:08:57.397Z,83.97
2018-11-06T07:11:27.655Z,84.44
2018-11-06T07:13:57.857Z,84.52
2018-11-06T07:16:31.311Z,83.88
2018-11-06T07:19:01.612Z,84.64
2018-11-06T07:21:32.833Z,84.07
2018-11-06T07:24:03.596Z,84.87
2018-11-06T07:26:32.938Z,84.15
2018-11-06T07:29:03.950Z,84.84
2018-11-06T07:31:33.309Z,84.35
2018-11-06T07:34:04.540Z,84.96
2018-11-06T07:36:33.428Z,84.40
2018-11-06T07:39:02.446Z,84.52
2018-11-06T07:41:31.413Z,84.32
2018-11-06T07:44:00.268Z,84.69
2018-11-06T07:46:29.414Z,84.41
2018-11-06T07:48:58.191Z,84.23
2018-11-06T07:51:26.991Z,84.61
2018-11-06T07:53:56.048Z,84.41
2018-11-06T07:56:24.869Z,84.68
2018-11-06T07:58:53.848Z,84.86
2018-11-06T08:01:23.046Z,84.36
2018-11-06T08:03:51.846Z,84.32
2018-11-06T08:06:20.767Z,84.09
2018-11-06T08:08:49.588Z,84.40
2018-11-06T08:11:18.394Z,84.59
2018-11-06T08:13:47.477Z,84.39
2018-11-06T08:16:16.299Z,84.04
2018-11-06T08:18:45.383Z,84.06
2018-11-06T08:21:14.474Z,84.20
2018-11-06T08:23:43.348Z,83.78
2018-11-06T08:26:12.591Z,84.19
2018-11-06T08:28:41.599Z,84.17
2018-11-06T08:31:10.777Z,83.34
2018-11-06T08:33:39.486Z,83.41
2018-11-06T08:36:08.307Z,84.04
2018-11-06T08:38:37.175Z,83.59
2018-11-06T08:41:06.470Z,82.95
2018-11-06T08:43:35.323Z,83.18
2018-11-06T08:46:04.174Z,82.51
2018-11-06T08:48:33.013Z,82.99
2018-11-06T08:51:02.193Z,82.42
2018-11-06T08:53:31.096Z,82.18
2018-11-06T08:56:00.721Z,81.95
2018-11-06T08:58:29.568Z,81.16
2018-11-06T09:00:58.501Z,81.09
2018-11-06T09:03:27.349Z,80.79
2018-11-06T09:05:56.164Z,81.30
2018-11-06T09:08:25.035Z,80.89
2018-11-06T09:10:54.052Z,81.01
2018-11-06T09:13:22.993Z,80.76
2018-11-06T09:15:51.969Z,80.31
2018-11-06T09:18:20.985Z,80.52
2018-11-06T09:20:49.885Z,80.14
2018-11-06T09:23:18.786Z,79.91
2018-11-06T09:25:47.833Z,79.96
2018-11-06T09:28:16.703Z,79.78
2018-11-06T09:30:45.522Z,78.77
2018-11-06T09:33:14.592Z,78.71
2018-11-06T09:35:43.880Z,78.43
2018-11-06T09:38:12.718Z,78.37
2018-11-06T09:40:41.513Z,77.91
2018-11-06T09:43:10.302Z,76.96
2018-11-06T09:45:39.197Z,77.29
2018-11-06T09:48:08.112Z,77.02
2018-11-06T09:50:36.974Z,76.79
2018-11-06T09:53:06.710Z,76.30
2018-11-06T09:55:35.962Z,77.25
2018-11-06T09:58:06.206Z,76.75
2018-11-06T10:00:35.049Z,76.49
2018-11-06T10:03:03.912Z,76.32
2018-11-06T10:05:32.748Z,75.90
2018-11-06T10:08:01.962Z,75.86
2018-11-06T10:10:30.801Z,75.82
2018-11-06T10:12:59.863Z,75.52
2018-11-06T10:15:29.096Z,75.50
2018-11-06T10:17:58.013Z,75.25
2018-11-06T10:20:26.860Z,74.78
2018-11-06T10:22:55.776Z,74.89
2018-11-06T10:25:24.727Z,74.55
2018-11-06T10:27:53.588Z,75.18
2018-11-06T10:30:22.911Z,74.94
2018-11-06T10:32:51.769Z,74.77
2018-11-06T10:35:20.542Z,74.15
2018-11-06T10:37:49.389Z,74.43
2018-11-06T10:40:19.713Z,74.23
2018-11-06T10:42:48.889Z,73.25
2018-11-06T10:45:18.392Z,72.79
2018-11-06T10:47:47.548Z,73.86
2018-11-06T10:50:17.077Z,73.33
2018-11-06T10:52:47.035Z,73.71
2018-11-06T10:55:15.874Z,72.85
2018-11-06T10:57:44.635Z,72.44
2018-11-06T11:00:19.422Z,73.02
2018-11-06T11:02:53.460Z,72.93
2018-11-06T11:05:24.468Z,71.82
2018-11-06T11:07:53.621Z,71.36
2018-11-06T11:10:22.444Z,71.08
2018-11-06T11:12:51.585Z,71.02
2018-11-06T11:15:20.421Z,70.58
2018-11-06T11:17:49.252Z,69.91
2018-11-06T11:20:18.143Z,70.84
2018-11-06T11:22:46.894Z,70.60
2018-11-06T11:25:16.750Z,70.28
2018-11-06T11:27:46.552Z,70.55
2018-11-06T11:30:16.365Z,69.59
2018-11-06T11:32:46.897Z,68.56
2018-11-06T11:35:15.875Z,69.05
2018-11-06T11:37:44.908Z,68.50
2018-11-06T11:40:14.892Z,68.79
2018-11-06T11:42:44.534Z,69.00
2018-11-06T11:45:14.289Z,68.89
2018-11-06T11:47:43.440Z,68.49
2018-11-06T11:50:13.409Z,67.81
2018-11-06T11:52:49.005Z,67.22
2018-11-06T11:55:17.877Z,67.13
2018-11-06T11:57:46.816Z,67.11
2018-11-06T12:00:17.584Z,66.80
2018-11-06T12:02:46.743Z,66.46
2018-11-06T12:05:15.565Z,66.74
2018-11-06T12:07:44.495Z,67.81
2018-11-06T12:10:13.844Z,68.57
2018-11-06T12:12:42.812Z,69.05
2018-11-06T12:15:14.096Z,68.61
2018-11-06T12:17:43.866Z,68.63
2018-11-06T12:20:13.316Z,68.62
2018-11-06T12:22:42.672Z,68.66
2018-11-06T12:25:12.172Z,68.86
2018-11-06T12:27:40.835Z,68.15
2018-11-06T12:30:11.833Z,68.70
2018-11-06T12:32:41.600Z,68.58
2018-11-06T12:35:11.845Z,68.46
2018-11-06T12:37:41.267Z,68.80
2018-11-06T12:40:11.316Z,68.67
2018-11-06T12:42:40.665Z,68.47
2018-11-06T12:45:12.347Z,67.91
2018-11-06T12:47:41.737Z,67.16
2018-11-06T12:50:10.805Z,67.63
2018-11-06T12:52:40.009Z,67.57
2018-11-06T12:55:10.573Z,67.40
2018-11-06T12:57:39.558Z,66.76
2018-11-06T13:00:11.251Z,66.56
2018-11-06T13:02:40.419Z,66.45
2018-11-06T13:05:09.598Z,66.86
2018-11-06T13:07:39.875Z,66.21
2018-11-06T13:10:09.245Z,66.98
2018-11-06T13:12:38.179Z,66.71
2018-11-06T13:15:07.781Z,65.80
2018-11-06T13:17:37.381Z,66.41
2018-11-06T13:20:08.238Z,66.85
2018-11-06T13:22:37.489Z,66.89
2018-11-06T13:25:07.240Z,66.54
2018-11-06T13:27:36.930Z,67.01
2018-11-06T13:30:07.507Z,67.31
2018-11-06T13:32:36.324Z,66.76
2018-11-06T13:35:05.875Z,66.87
2018-11-06T13:37:35.210Z,66.75
2018-11-06T13:40:04.968Z,67.25
2018-11-06T13:42:34.016Z,66.66
2018-11-06T13:45:03.373Z,67.49
2018-11-06T13:47:32.013Z,67.79
2018-11-06T13:50:00.938Z,67.79
2018-11-06T13:52:29.815Z,68.14
2018-11-06T13:54:58.680Z,68.08
2018-11-06T13:57:27.493Z,68.48
2018-11-06T13:59:56.273Z,67.62
2018-11-06T14:02:25.263Z,68.37
2018-11-06T14:04:54.111Z,68.19
2018-11-06T14:07:23.018Z,68.21
2018-11-06T14:09:52.174Z,68.85
2018-11-06T14:12:21.284Z,69.12
2018-11-06T14:14:50.136Z,68.83
2018-11-06T14:17:19.021Z,69.25
2018-11-06T14:19:47.896Z,69.03
2018-11-06T14:22:17.127Z,69.22
2018-11-06T14:24:45.912Z,69.27
2018-11-06T14:27:14.937Z,68.78
2018-11-06T14:29:43.768Z,68.84
2018-11-06T14:32:12.618Z,69.23
2018-11-06T14:34:41.760Z,69.56
2018-11-06T14:37:10.776Z,70.27
2018-11-06T14:39:39.693Z,69.94
2018-11-06T14:42:08.607Z,70.58
2018-11-06T14:44:37.778Z,70.08
2018-11-06T14:47:07.073Z,70.11
2018-11-06T14:49:36.181Z,70.46
2018-11-06T14:52:05.485Z,70.62
2018-11-06T14:54:34.883Z,71.17
2018-11-06T14:57:03.839Z,71.70
2018-11-06T14:59:32.872Z,71.90
2018-11-06T15:02:02.189Z,72.21
2018-11-06T15:04:31.252Z,71.88
2018-11-06T15:07:00.154Z,71.98
2018-11-06T15:09:29.125Z,72.81
2018-11-06T15:11:59.030Z,72.55
2018-11-06T15:14:27.995Z,72.98
2018-11-06T15:16:56.901Z,73.57
2018-11-06T15:19:25.939Z,73.38
2018-11-06T15:21:55.603Z,73.91
2018-11-06T15:24:24.856Z,74.20
2018-11-06T15:26:53.852Z,74.40
2018-11-06T15:29:22.871Z,74.16
2018-11-06T15:31:51.985Z,74.24
2018-11-06T15:34:20.912Z,74.39
2018-11-06T15:36:50.945Z,74.83
2018-11-06T15:39:19.859Z,74.63
2018-11-06T15:41:48.852Z,74.79
2018-11-06T15:44:17.501Z,75.34
2018-11-06T15:46:46.453Z,75.41
2018-11-06T15:49:15.414Z,75.60
2018-11-06T15:51:44.226Z,75.19
2018-11-06T15:54:13.244Z,75.41
2018-11-06T15:56:42.299Z,76.05
2018-11-06T15:59:11.090Z,75.60
2018-11-06T16:01:40.053Z,76.19
2018-11-06T16:04:09.060Z,75.74
2018-11-06T16:06:38.001Z,76.48
2018-11-06T16:09:07.754Z,75.97
2018-11-06T16:11:36.703Z,76.29
2018-11-06T16:14:05.627Z,77.00
2018-11-06T16:16:34.576Z,77.02
2018-11-06T16:19:03.758Z,76.56
2018-11-06T16:21:32.635Z,77.29
2018-11-06T16:24:01.618Z,76.94
2018-11-06T16:26:30.595Z,76.89
2018-11-06T16:28:59.626Z,77.06
2018-11-06T16:31:28.423Z,77.42
2018-11-06T16:33:57.628Z,76.89
2018-11-06T16:36:26.681Z,77.48
2018-11-06T16:38:55.973Z,77.78
2018-11-06T16:41:24.948Z,77.32
2018-11-06T16:43:53.899Z,77.48
2018-11-06T16:46:22.973Z,77.62
2018-11-06T16:48:52.038Z,78.04
2018-11-06T16:51:20.877Z,77.95
2018-11-06T16:53:49.867Z,77.61
2018-11-06T16:56:18.795Z,78.14
2018-11-06T16:58:47.892Z,77.75
2018-11-06T17:01:16.895Z,77.81
2018-11-06T17:03:45.781Z,78.08
2018-11-06T17:06:19.849Z,78.24
2018-11-06T17:08:48.834Z,78.34
2018-11-06T17:11:17.953Z,78.30
2018-11-06T17:13:46.793Z,78.52
2018-11-06T17:16:15.653Z,78.50
2018-11-06T17:18:44.540Z,78.63
2018-11-06T17:21:13.608Z,78.49
2018-11-06T17:23:42.891Z,78.46
2018-11-06T17:26:11.756Z,78.54
2018-11-06T17:28:40.640Z,78.68
2018-11-06T17:31:09.719Z,78.62
2018-11-06T17:33:38.736Z,78.42
2018-11-06T17:36:08.065Z,78.86
2018-11-06T17:38:36.940Z,78.95
2018-11-06T17:41:06.811Z,78.83
2018-11-06T17:43:35.830Z,78.90
2018-11-06T17:46:04.987Z,78.71
2018-11-06T17:48:33.870Z,79.35
2018-11-06T17:51:02.708Z,79.37
2018-11-06T17:53:31.677Z,79.50
2018-11-06T17:56:00.536Z,79.31
2018-11-06T17:58:29.788Z,78.83
2018-11-06T18:00:58.753Z,79.40
2018-11-06T18:03:27.805Z,79.30
2018-11-06T18:05:56.947Z,79.60
2018-11-06T18:08:25.871Z,79.28
2018-11-06T18:10:54.860Z,78.84
2018-11-06T18:13:24.744Z,79.56
2018-11-06T18:15:53.699Z,79.46
2018-11-06T18:18:22.747Z,78.88
2018-11-06T18:20:51.678Z,79.34
2018-11-06T18:23:20.665Z,79.54
2018-11-06T18:25:49.834Z,79.51
2018-11-06T18:28:18.599Z,79.09
2018-11-06T18:30:47.633Z,79.49
2018-11-06T18:33:16.467Z,79.16
2018-11-06T18:35:45.494Z,79.13
2018-11-06T18:38:14.407Z,79.63
2018-11-06T18:40:43.441Z,79.22
2018-11-06T18:43:13.154Z,78.97
2018-11-06T18:45:42.106Z,79.56
2018-11-06T18:48:11.222Z,79.69
2018-11-06T18:50:40.185Z,79.78
2018-11-06T18:53:09.192Z,80.03
2018-11-06T18:55:38.561Z,79.65
2018-11-06T18:58:07.562Z,79.80
2018-11-06T19:00:36.452Z,79.53
2018-11-06T19:03:05.881Z,80.09
2018-11-06T19:05:34.743Z,80.15
2018-11-06T19:08:03.771Z,80.02
2018-11-06T19:10:33.632Z,80.57
2018-11-06T19:13:02.457Z,79.56
2018-11-06T19:15:31.521Z,79.52
2018-11-06T19:18:00.417Z,80.09
2018-11-06T19:20:29.355Z,80.00
2018-11-06T19:22:58.246Z,79.76
2018-11-06T19:25:27.509Z,79.42
2018-11-06T19:27:56.629Z,79.48
2018-11-06T19:30:25.610Z,80.08
2018-11-06T19:32:54.641Z,79.49
2018-11-06T19:35:23.526Z,79.36
2018-11-06T19:37:52.463Z,79.49
2018-11-06T19:40:21.340Z,80.15
2018-11-06T19:42:50.298Z,79.54
2018-11-06T19:45:19.205Z,79.71
2018-11-06T19:47:48.115Z,79.84
2018-11-06T19:50:18.467Z,80.41
2018-11-06T19:52:47.836Z,80.55
2018-11-06T19:55:17.722Z,80.09
2018-11-06T19:57:46.813Z,80.21
2018-11-06T20:00:20.182Z,80.12
2018-11-06T20:02:50.676Z,80.71
2018-11-06T20:05:20.058Z,80.76
2018-11-06T20:07:50.196Z,80.66
2018-11-06T20:10:20.426Z,80.59
2018-11-06T20:12:50.535Z,80.97
2018-11-06T20:15:19.810Z,80.55
2018-11-06T20:17:49.025Z,80.46
2018-11-06T20:20:20.604Z,80.64
2018-11-06T20:22:49.519Z,80.75
2018-11-06T20:25:18.510Z,80.78
2018-11-06T20:27:47.646Z,80.75
2018-11-06T20:30:19.346Z,80.77
2018-11-06T20:32:49.046Z,81.39
2018-11-06T20:35:18.301Z,81.39
2018-11-06T20:37:47.745Z,81.31
2018-11-06T20:40:20.586Z,81.50
2018-11-06T20:42:49.663Z,80.82
2018-11-06T20:45:19.432Z,80.95
2018-11-06T20:47:48.444Z,80.98
2018-11-06T20:50:20.168Z,81.45
2018-11-06T20:52:49.663Z,80.86
2018-11-06T20:55:19.353Z,81.62
2018-11-06T20:57:48.263Z,81.59
2018-11-06T21:00:26.072Z,81.23
2018-11-06T21:02:55.948Z,81.68
2018-11-06T21:05:24.981Z,81.35
2018-11-06T21:07:54.741Z,81.87
2018-11-06T21:10:24.991Z,81.29
2018-11-06T21:12:53.826Z,81.89
2018-11-06T21:15:22.912Z,81.31
2018-11-06T21:17:52.303Z,81.99
2018-11-06T21:20:21.292Z,81.38
2018-11-06T21:22:50.430Z,81.49
2018-11-06T21:25:19.357Z,81.59
2018-11-06T21:27:48.442Z,82.08
2018-11-06T21:30:18.797Z,82.25
2018-11-06T21:32:48.851Z,81.70
2018-11-06T21:35:18.462Z,82.30
2018-11-06T21:37:47.380Z,82.47
2018-11-06T21:40:18.317Z,82.23
2018-11-06T21:42:48.078Z,82.01
2018-11-06T21:45:17.833Z,81.93
2018-11-06T21:47:47.428Z,82.13
2018-11-06T21:50:17.163Z,82.19
2018-11-06T21:52:46.043Z,82.82
2018-11-06T21:55:16.160Z,82.83
2018-11-06T21:57:45.025Z,82.15
2018-11-06T22:00:16.405Z,82.37
2018-11-06T22:02:45.558Z,82.50
2018-11-06T22:05:15.582Z,82.41
2018-11-06T22:07:44.669Z,82.36
2018-11-06T22:10:19.086Z,82.80
2018-11-06T22:12:48.195Z,82.43
2018-11-06T22:15:18.152Z,82.59
2018-11-06T22:17:47.722Z,82.66
2018-11-06T22:20:17.826Z,82.65
2018-11-06T22:22:47.333Z,82.96
2018-11-06T22:25:16.337Z,82.58
2018-11-06T22:27:45.574Z,83.00
2018-11-06T22:30:15.460Z,83.17
2018-11-06T22:32:45.421Z,82.81
2018-11-06T22:35:15.384Z,83.44
2018-11-06T22:37:44.242Z,82.99
2018-11-06T22:40:14.435Z,83.40
2018-11-06T22:42:43.638Z,83.50
2018-11-06T22:45:13.832Z,83.41
2018-11-06T22:47:43.125Z,83.54
2018-11-06T22:50:14.647Z,83.12
2018-11-06T22:52:43.949Z,83.02
2018-11-06T22:55:13.118Z,82.87
2018-11-06T22:57:42.144Z,83.76
2018-11-06T23:00:14.284Z,83.38
2018-11-06T23:02:44.431Z,82.64
2018-11-06T23:05:13.736Z,82.87
2018-11-06T23:07:47.603Z,83.33
2018-11-06T23:10:16.419Z,83.11
2018-11-06T23:12:45.304Z,82.91
2018-11-06T23:15:14.235Z,83.46
2018-11-06T23:17:43.090Z,83.63
2018-11-06T23:20:11.882Z,82.83
2018-11-06T23:22:40.832Z,83.01
2018-11-06T23:25:09.764Z,82.89
2018-11-06T23:27:38.557Z,83.39
2018-11-06T23:30:10.227Z,83.42
2018-11-06T23:32:39.110Z,83.04
2018-11-06T23:35:08.004Z,83.15
2018-11-06T23:37:36.893Z,83.58
2018-11-06T23:40:05.938Z,83.56
2018-11-06T23:42:35.118Z,83.56
2018-11-06T23:45:04.530Z,83.10
2018-11-06T23:47:33.898Z,83.59
2018-11-06T23:50:02.830Z,83.42
2018-11-06T23:52:32.087Z,82.99
2018-11-06T23:55:00.983Z,82.98
2018-11-06T23:57:30.696Z,83.69
